This is the latest recevied weather packets stored in our database for station/object WX5II-11. If no packets are shown the sender has not sent any weather packets the latest 10 day(s).
| Time | Temp. | Humidity | Pressure | Rain* | Wind** | Luminosity | Snow |
|---|---|---|---|---|---|---|---|
| 1788234638 | 28.33° C | 73% | 1006.4 hPa | 0 mm | - | - | - |
| 1788233437 | 28.33° C | 72% | 1006.4 hPa | 0 mm | - | - | - |
| 1788232838 | 28.89° C | 71% | 1006 hPa | 0 mm | - | - | - |
| 1788229235 | 29.44° C | 63% | 1005.4 hPa | 0 mm | - | - | - |
| 1788187196 | 31.67° C | 63% | 1006.7 hPa | 0 mm | - | - | - |
| 1788176384 | 25° C | 83% | 1005.7 hPa | 0 mm | - | - | - |
| 1788174584 | 25.56° C | 82% | 1005.4 hPa | 0 mm | - | - | - |
| 1788157767 | 27.22° C | 77% | 1006 hPa | 0 mm | - | - | - |
| 1788155965 | 27.22° C | 77% | 1006 hPa | 0 mm | - | - | - |
| 1788152962 | 27.78° C | 74% | 1006.4 hPa | 0 mm | - | - | - |
| 1788152361 | 27.78° C | 74% | 1006 hPa | 0 mm | - | - | - |
| 1788151765 | 27.78° C | 74% | 1006.4 hPa | 0 mm | - | - | - |
| 1788151160 | 27.78° C | 73% | 1006 hPa | 0 mm | - | - | - |
| 1788148760 | 28.33° C | 71% | 1006 hPa | 0 mm | - | - | - |
| 1788147559 | 28.33° C | 70% | 1006 hPa | 0 mm | - | - | - |
| 1788146356 | 28.89° C | 70% | 1005.7 hPa | 0 mm | - | - | - |
| 1788141552 | 30° C | 62% | 1005 hPa | 0 mm | - | - | - |
| 1788103716 | 32.22° C | 60% | 1007.7 hPa | 0 mm | - | - | - |
| 1788100714 | 31.11° C | 66% | 1007.7 hPa | 0 mm | - | - | - |
| 1788100112 | 30.56° C | 69% | 1007.4 hPa | 0 mm | - | - | - |
| 1788098911 | 30.56° C | 70% | 1007.7 hPa | 0 mm | - | - | - |
| 1788097711 | 29.44° C | 74% | 1007.4 hPa | 0 mm | - | - | - |
| 1788093505 | 24.44° C | 85% | 1006.7 hPa | 0 mm | - | - | - |
| 1788091704 | 23.89° C | 84% | 1006.7 hPa | 0 mm | - | - | - |
| 1788088702 | 24.44° C | 84% | 1006.7 hPa | 0 mm | - | - | - |
* Rain latest hour (hover to see other rain measurements)
** Current wind speed in m/s (hover to see current wind gust speed)